createdAt,value
2023-02-17T00:02:18.468Z,10.40
2023-02-17T00:04:45.557Z,10.40
2023-02-17T00:07:12.602Z,10.40
2023-02-17T00:09:39.650Z,10.50
2023-02-17T00:12:09.007Z,10.50
2023-02-17T00:14:36.096Z,10.40
2023-02-17T00:17:03.137Z,10.50
2023-02-17T00:19:30.201Z,10.50
2023-02-17T00:21:59.940Z,10.40
2023-02-17T00:24:29.422Z,10.50
2023-02-17T00:26:56.649Z,10.40
2023-02-17T00:29:23.731Z,10.50
2023-02-17T00:31:54.592Z,10.50
2023-02-17T00:34:23.612Z,10.50
2023-02-17T00:36:51.759Z,10.50
2023-02-17T00:39:18.791Z,10.50
2023-02-17T00:41:48.983Z,10.50
2023-02-17T00:44:19.032Z,10.50
2023-02-17T00:46:47.309Z,10.50
2023-02-17T00:49:22.057Z,10.50
2023-02-17T00:51:49.942Z,10.50
2023-02-17T00:54:20.327Z,10.50
2023-02-17T00:56:47.706Z,10.50
2023-02-17T00:59:18.817Z,10.50
2023-02-17T01:01:45.932Z,10.50
2023-02-17T01:04:15.820Z,10.50
2023-02-17T01:06:42.972Z,10.50
2023-02-17T01:09:14.765Z,10.50
2023-02-17T01:11:42.349Z,10.50
2023-02-17T01:14:12.012Z,10.50
2023-02-17T01:16:41.036Z,10.50
2023-02-17T01:19:13.354Z,10.50
2023-02-17T01:21:43.541Z,10.50
2023-02-17T01:24:12.308Z,10.50
2023-02-17T01:26:40.848Z,10.50
2023-02-17T01:29:08.715Z,10.50
2023-02-17T01:31:36.976Z,10.50
2023-02-17T01:34:05.437Z,10.50
2023-02-17T01:36:33.464Z,10.50
2023-02-17T01:39:01.086Z,10.50
2023-02-17T01:41:29.316Z,10.50
2023-02-17T01:44:05.486Z,10.50
2023-02-17T01:46:34.476Z,10.50
2023-02-17T01:49:14.884Z,10.40
2023-02-17T01:51:42.662Z,10.40
2023-02-17T01:54:14.605Z,10.40
2023-02-17T01:56:45.449Z,10.40
2023-02-17T01:59:21.111Z,10.50
2023-02-17T02:01:53.164Z,10.50
2023-02-17T02:04:23.873Z,10.50
2023-02-17T02:06:52.204Z,10.50
2023-02-17T02:09:46.689Z,10.40
2023-02-17T02:12:40.864Z,10.40
2023-02-17T02:15:12.810Z,10.40
2023-02-17T02:17:59.087Z,10.40
2023-02-17T02:20:49.125Z,10.40
2023-02-17T02:23:43.907Z,10.40
2023-02-17T02:26:18.866Z,10.40
2023-02-17T02:29:19.875Z,10.40
2023-02-17T02:31:56.001Z,10.40
2023-02-17T02:34:46.246Z,10.40
2023-02-17T02:37:28.373Z,10.40
2023-02-17T02:39:57.326Z,10.40
2023-02-17T02:42:25.954Z,10.40
2023-02-17T02:44:53.775Z,10.40
2023-02-17T02:47:44.343Z,10.40
2023-02-17T02:50:42.518Z,10.40
2023-02-17T02:53:51.209Z,10.40
2023-02-17T02:56:27.304Z,10.40
2023-02-17T02:59:06.514Z,10.30
2023-02-17T03:02:16.619Z,10.30
2023-02-17T03:05:16.847Z,10.30
2023-02-17T03:08:00.188Z,10.30
2023-02-17T03:10:30.097Z,10.30
2023-02-17T03:12:58.076Z,10.30
2023-02-17T03:15:34.932Z,10.20
2023-02-17T03:18:03.750Z,10.20
2023-02-17T03:20:44.259Z,10.30
2023-02-17T03:23:11.799Z,10.30
2023-02-17T03:25:39.434Z,10.20
2023-02-17T03:28:08.924Z,10.30
2023-02-17T03:30:36.068Z,10.20
2023-02-17T03:33:03.320Z,10.30
2023-02-17T03:35:34.706Z,10.20
2023-02-17T03:38:02.053Z,10.20
2023-02-17T03:40:32.606Z,10.20
2023-02-17T03:42:59.839Z,10.30
2023-02-17T03:45:30.265Z,10.20
2023-02-17T03:47:57.409Z,10.30
2023-02-17T03:50:24.735Z,10.30
2023-02-17T03:52:51.847Z,10.30
2023-02-17T03:55:18.953Z,10.30
2023-02-17T03:57:45.973Z,10.30
2023-02-17T04:00:16.071Z,10.30
2023-02-17T04:02:45.265Z,10.30
2023-02-17T04:05:15.875Z,10.30
2023-02-17T04:07:45.624Z,10.30
2023-02-17T04:10:15.307Z,10.30
2023-02-17T04:12:42.470Z,10.30
2023-02-17T04:15:12.240Z,10.30
2023-02-17T04:17:39.434Z,10.30
2023-02-17T04:20:08.290Z,10.30
2023-02-17T04:22:38.386Z,10.30
2023-02-17T04:25:05.643Z,10.30
2023-02-17T04:27:35.243Z,10.30
2023-02-17T04:30:07.130Z,10.30
2023-02-17T04:32:34.206Z,10.30
2023-02-17T04:35:01.132Z,10.30
2023-02-17T04:37:28.207Z,10.20
2023-02-17T04:39:55.157Z,10.30
2023-02-17T04:42:22.142Z,10.30
2023-02-17T04:44:49.147Z,10.30
2023-02-17T04:47:16.307Z,10.30
2023-02-17T04:49:43.312Z,10.30
2023-02-17T04:52:10.419Z,10.30
2023-02-17T04:54:37.730Z,10.30
2023-02-17T04:57:04.713Z,10.30
2023-02-17T04:59:31.713Z,10.30
2023-02-17T05:01:58.734Z,10.30
2023-02-17T05:04:25.886Z,10.20
2023-02-17T05:06:53.021Z,10.20
2023-02-17T05:09:22.313Z,10.20
2023-02-17T05:11:49.318Z,10.10
2023-02-17T05:14:16.309Z,10.10
2023-02-17T05:16:43.362Z,10.10
2023-02-17T05:19:10.699Z,10.10
2023-02-17T05:21:37.677Z,10.10
2023-02-17T05:24:05.438Z,10.10
2023-02-17T05:26:32.809Z,10.10
2023-02-17T05:29:00.020Z,10.10
2023-02-17T05:31:27.054Z,10.00
2023-02-17T05:33:54.952Z,10.00
2023-02-17T05:36:22.021Z,10.00
2023-02-17T05:38:50.038Z,10.00
2023-02-17T05:41:19.228Z,10.10
2023-02-17T05:43:47.478Z,10.10
2023-02-17T05:46:15.044Z,10.10
2023-02-17T05:48:42.224Z,10.10
2023-02-17T05:51:09.461Z,10.10
2023-02-17T05:53:36.604Z,10.10
2023-02-17T05:56:04.068Z,10.10
2023-02-17T05:58:31.366Z,10.10
2023-02-17T06:00:58.374Z,10.10
2023-02-17T06:03:25.399Z,10.10
2023-02-17T06:05:52.467Z,10.10
2023-02-17T06:08:19.433Z,10.10
2023-02-17T06:10:46.452Z,10.10
2023-02-17T06:13:16.348Z,10.20
2023-02-17T06:15:50.388Z,10.20
2023-02-17T06:18:17.923Z,10.20
2023-02-17T06:20:45.296Z,10.20
2023-02-17T06:23:12.259Z,10.20
2023-02-17T06:25:39.410Z,10.30
2023-02-17T06:28:06.544Z,10.20
2023-02-17T06:30:33.775Z,10.20
2023-02-17T06:33:00.937Z,10.30
2023-02-17T06:35:31.059Z,10.30
2023-02-17T06:37:58.129Z,10.30
2023-02-17T06:40:26.560Z,10.30
2023-02-17T06:42:56.871Z,10.30
2023-02-17T06:45:23.935Z,10.30
2023-02-17T06:47:50.988Z,10.30
2023-02-17T06:50:18.179Z,10.30
2023-02-17T06:52:45.323Z,10.30
2023-02-17T06:55:13.348Z,10.30
2023-02-17T06:57:40.365Z,10.30
2023-02-17T07:00:08.185Z,10.30
2023-02-17T07:02:38.662Z,10.40
2023-02-17T07:05:06.902Z,10.40
2023-02-17T07:07:34.482Z,10.40
2023-02-17T07:10:01.471Z,10.40
2023-02-17T07:12:30.007Z,10.40
2023-02-17T07:14:58.685Z,10.40
2023-02-17T07:17:26.026Z,10.40
2023-02-17T07:19:53.082Z,10.40
2023-02-17T07:22:20.166Z,10.40
2023-02-17T07:24:49.533Z,10.40
2023-02-17T07:27:18.808Z,10.50
2023-02-17T07:29:45.980Z,10.50
2023-02-17T07:32:13.091Z,10.50
2023-02-17T07:34:40.112Z,10.60
2023-02-17T07:37:10.161Z,10.60
2023-02-17T07:39:37.251Z,10.60
2023-02-17T07:42:07.477Z,10.60
2023-02-17T07:44:37.766Z,10.60
2023-02-17T07:47:04.919Z,10.50
2023-02-17T07:49:32.170Z,10.60
2023-02-17T07:52:19.410Z,10.60
2023-02-17T07:54:48.519Z,10.60
2023-02-17T07:57:15.838Z,10.60
2023-02-17T07:59:42.863Z,10.60
2023-02-17T08:02:12.481Z,10.60
2023-02-17T08:04:39.783Z,10.60
2023-02-17T08:07:06.949Z,10.70
2023-02-17T08:10:01.554Z,10.70
2023-02-17T08:12:50.184Z,10.70
2023-02-17T08:15:17.285Z,10.70
2023-02-17T08:17:44.578Z,10.80
2023-02-17T08:20:13.483Z,10.80
2023-02-17T08:22:40.517Z,10.80
2023-02-17T08:25:07.835Z,10.80
2023-02-17T08:27:34.898Z,10.80
2023-02-17T08:30:05.581Z,10.90
2023-02-17T08:32:37.434Z,10.90
2023-02-17T08:35:05.714Z,11.00
2023-02-17T08:37:33.223Z,11.00
2023-02-17T08:40:06.168Z,11.10
2023-02-17T08:42:33.623Z,11.10
2023-02-17T08:45:02.993Z,11.10
2023-02-17T08:47:39.468Z,11.20
2023-02-17T08:50:08.555Z,11.20
2023-02-17T08:52:36.361Z,11.20
2023-02-17T08:55:04.162Z,11.20
2023-02-17T08:57:32.368Z,11.30
2023-02-17T08:59:59.490Z,11.30
2023-02-17T09:02:26.631Z,11.30
2023-02-17T09:04:53.634Z,11.30
2023-02-17T09:07:20.872Z,11.30
2023-02-17T09:09:47.918Z,11.30
2023-02-17T09:12:15.073Z,11.40
2023-02-17T09:14:42.066Z,11.30
2023-02-17T09:17:10.302Z,11.30
2023-02-17T09:19:40.885Z,11.40
2023-02-17T09:22:08.074Z,11.40
2023-02-17T09:24:38.832Z,11.40
2023-02-17T09:27:05.966Z,11.40
2023-02-17T09:29:33.096Z,11.40
2023-02-17T09:32:00.313Z,11.40
2023-02-17T09:34:27.562Z,11.40
2023-02-17T09:36:54.745Z,11.40
2023-02-17T09:39:21.925Z,11.40
2023-02-17T09:41:52.384Z,11.40
2023-02-17T09:44:42.875Z,11.40
2023-02-17T09:47:18.430Z,11.40
2023-02-17T09:50:11.261Z,11.40
2023-02-17T09:52:53.820Z,11.40
2023-02-17T09:55:29.959Z,11.40
2023-02-17T09:58:16.910Z,11.40
2023-02-17T10:01:09.003Z,11.40
2023-02-17T10:03:43.227Z,11.40
2023-02-17T10:06:41.142Z,11.50
2023-02-17T10:09:08.303Z,11.50
2023-02-17T10:11:41.160Z,11.50
2023-02-17T10:14:18.059Z,11.60
2023-02-17T10:16:53.632Z,11.50
2023-02-17T10:19:34.600Z,11.60
2023-02-17T10:22:19.652Z,11.50
2023-02-17T10:24:49.908Z,11.50
2023-02-17T10:27:42.931Z,11.60
2023-02-17T10:30:40.866Z,11.50
2023-02-17T10:33:35.481Z,11.60
2023-02-17T10:36:26.470Z,11.60
2023-02-17T10:39:00.313Z,11.60
2023-02-17T10:41:33.259Z,11.70
2023-02-17T10:44:03.056Z,11.70
2023-02-17T10:46:32.316Z,11.80
2023-02-17T10:49:00.544Z,11.70
2023-02-17T10:51:31.372Z,11.80
2023-02-17T10:54:10.969Z,11.70
2023-02-17T10:56:51.763Z,11.70
2023-02-17T10:59:28.425Z,11.80
2023-02-17T11:02:22.142Z,11.80
2023-02-17T11:04:56.098Z,11.70
2023-02-17T11:07:33.157Z,11.80
2023-02-17T11:10:03.096Z,11.90
2023-02-17T11:12:40.063Z,11.90
2023-02-17T11:15:22.037Z,11.90
2023-02-17T11:17:49.613Z,12.00
2023-02-17T11:20:16.867Z,12.00
2023-02-17T11:22:59.327Z,12.10
2023-02-17T11:25:29.681Z,12.10
2023-02-17T11:28:09.092Z,12.20
2023-02-17T11:30:38.107Z,12.20
2023-02-17T11:33:16.039Z,12.30
2023-02-17T11:35:56.710Z,12.40
2023-02-17T11:38:32.292Z,12.40
2023-02-17T11:41:08.005Z,12.40
2023-02-17T11:43:36.264Z,12.40
2023-02-17T11:46:26.869Z,12.30
2023-02-17T11:49:25.472Z,12.30
2023-02-17T11:52:19.142Z,12.30
2023-02-17T11:55:25.870Z,12.20
2023-02-17T11:58:18.627Z,12.10
2023-02-17T12:00:57.016Z,12.20
2023-02-17T12:03:49.312Z,12.20
2023-02-17T12:06:50.021Z,12.20
2023-02-17T12:09:34.984Z,12.10
2023-02-17T12:12:20.927Z,12.20
2023-02-17T12:14:53.072Z,12.10
2023-02-17T12:17:40.884Z,12.10
2023-02-17T12:20:32.429Z,12.10
2023-02-17T12:23:23.566Z,12.10
2023-02-17T12:26:06.958Z,12.10
2023-02-17T12:28:46.296Z,12.10
2023-02-17T12:31:42.145Z,12.10
2023-02-17T12:34:41.318Z,12.10
2023-02-17T12:37:50.525Z,12.10
2023-02-17T12:40:39.466Z,12.10
2023-02-17T12:43:28.287Z,12.20
2023-02-17T12:46:13.788Z,12.20
2023-02-17T12:48:53.382Z,12.10
2023-02-17T12:51:41.306Z,12.10
2023-02-17T12:54:24.909Z,12.10
2023-02-17T12:57:05.252Z,12.10
2023-02-17T12:59:37.144Z,12.20
2023-02-17T13:02:13.356Z,12.10
2023-02-17T13:04:51.758Z,12.20
2023-02-17T13:07:42.260Z,12.10
2023-02-17T13:10:27.049Z,12.20
2023-02-17T13:13:00.861Z,12.20
2023-02-17T13:15:35.482Z,12.20
2023-02-17T13:18:13.424Z,12.10
2023-02-17T13:20:50.927Z,12.10
2023-02-17T13:23:29.374Z,12.10
2023-02-17T13:26:35.714Z,12.10
2023-02-17T13:29:38.816Z,12.00
2023-02-17T13:32:22.004Z,12.00
2023-02-17T13:35:12.717Z,12.00
2023-02-17T13:37:45.730Z,12.00
2023-02-17T13:40:17.080Z,12.00
2023-02-17T13:42:49.111Z,12.00
2023-02-17T13:45:44.784Z,12.00
2023-02-17T13:48:31.189Z,12.00
2023-02-17T13:51:06.189Z,12.00
2023-02-17T13:53:49.667Z,12.00
2023-02-17T13:56:28.388Z,12.00
2023-02-17T13:59:06.574Z,12.00
2023-02-17T14:01:44.648Z,12.00
2023-02-17T14:04:22.323Z,12.00
2023-02-17T14:06:52.386Z,12.00
2023-02-17T14:09:28.683Z,12.00
2023-02-17T14:11:57.480Z,12.00
2023-02-17T14:14:31.273Z,12.00
2023-02-17T14:17:07.009Z,12.10
2023-02-17T14:19:48.440Z,12.10
2023-02-17T14:22:35.691Z,12.20
2023-02-17T14:25:28.758Z,12.20
2023-02-17T14:27:56.411Z,12.30
2023-02-17T14:30:51.364Z,12.30
2023-02-17T14:33:32.025Z,12.30
2023-02-17T14:36:15.553Z,12.30
2023-02-17T14:38:43.141Z,12.30
2023-02-17T14:41:10.549Z,12.40
2023-02-17T14:43:40.374Z,12.30
2023-02-17T14:46:10.866Z,12.30
2023-02-17T14:48:41.935Z,12.30
2023-02-17T14:51:17.688Z,12.30
2023-02-17T14:53:54.563Z,12.40
2023-02-17T14:56:34.549Z,12.40
2023-02-17T14:59:05.907Z,12.40
2023-02-17T15:01:39.071Z,12.40
2023-02-17T15:04:08.249Z,12.30
2023-02-17T15:06:54.052Z,12.30
2023-02-17T15:09:36.390Z,12.30
2023-02-17T15:12:05.876Z,12.30
2023-02-17T15:14:35.507Z,12.30
2023-02-17T15:17:07.629Z,12.30
2023-02-17T15:19:34.919Z,12.30
2023-02-17T15:22:18.034Z,12.30
2023-02-17T15:24:48.528Z,12.30
2023-02-17T15:27:19.621Z,12.20
2023-02-17T15:29:48.206Z,12.20
2023-02-17T15:32:20.359Z,12.20
2023-02-17T15:34:49.824Z,12.20
2023-02-17T15:37:20.019Z,12.20
2023-02-17T15:39:47.090Z,12.20
2023-02-17T15:42:28.118Z,12.10
2023-02-17T15:44:56.272Z,12.10
2023-02-17T15:50:23.274Z,12.10
2023-02-17T15:53:04.125Z,12.10
2023-02-17T15:55:35.896Z,12.20
2023-02-17T15:58:06.325Z,12.10
2023-02-17T16:00:35.542Z,12.20
2023-02-17T16:03:04.562Z,12.10
2023-02-17T16:05:33.678Z,12.10
2023-02-17T16:08:00.783Z,12.10
2023-02-17T16:10:28.844Z,12.10
2023-02-17T16:13:00.536Z,12.10
2023-02-17T16:15:29.439Z,12.10
2023-02-17T16:17:57.748Z,12.10
2023-02-17T16:20:28.289Z,12.10
2023-02-17T16:22:56.157Z,12.10
2023-02-17T16:25:23.880Z,12.10
2023-02-17T16:27:52.857Z,12.10
2023-02-17T16:30:34.829Z,12.10
2023-02-17T16:33:03.825Z,12.10
2023-02-17T16:35:32.492Z,12.10
2023-02-17T16:38:15.489Z,12.00
2023-02-17T16:40:47.563Z,12.00
2023-02-17T16:43:27.818Z,12.00
2023-02-17T16:45:58.121Z,12.00
2023-02-17T16:48:28.573Z,12.00
2023-02-17T16:50:58.450Z,12.00
2023-02-17T16:53:26.255Z,12.00
2023-02-17T16:55:55.379Z,11.90
2023-02-17T16:58:24.637Z,11.90
2023-02-17T17:00:55.063Z,11.90
2023-02-17T17:03:22.593Z,11.90
2023-02-17T17:05:53.542Z,11.90
2023-02-17T17:08:22.177Z,11.80
2023-02-17T17:10:49.751Z,11.80
2023-02-17T17:13:17.139Z,11.80
2023-02-17T17:15:47.189Z,11.80
2023-02-17T17:18:21.285Z,11.80
2023-02-17T17:20:49.466Z,11.80
2023-02-17T17:23:16.831Z,11.70
2023-02-17T17:25:46.670Z,11.70
2023-02-17T17:28:17.794Z,11.70
2023-02-17T17:30:46.423Z,11.70
2023-02-17T17:33:13.718Z,11.70
2023-02-17T17:35:41.124Z,11.60
2023-02-17T17:38:09.864Z,11.60
2023-02-17T17:40:53.131Z,11.60
2023-02-17T17:43:22.274Z,11.60
2023-02-17T17:45:51.026Z,11.60
2023-02-17T17:48:21.483Z,11.60
2023-02-17T17:50:49.927Z,11.60
2023-02-17T17:53:17.322Z,11.60
2023-02-17T17:55:44.518Z,11.60
2023-02-17T17:58:11.623Z,11.60
2023-02-17T18:00:38.746Z,11.60
2023-02-17T18:03:05.838Z,11.60
2023-02-17T18:05:32.946Z,11.60
2023-02-17T18:08:01.129Z,11.60
2023-02-17T18:10:28.382Z,11.60
2023-02-17T18:12:55.746Z,11.60
2023-02-17T18:15:22.776Z,11.60
2023-02-17T18:17:51.330Z,11.50
2023-02-17T18:20:19.127Z,11.50
2023-02-17T18:22:46.955Z,11.50
2023-02-17T18:25:15.661Z,11.50
2023-02-17T18:27:46.761Z,11.50
2023-02-17T18:30:18.002Z,11.50
2023-02-17T18:32:46.131Z,11.50
2023-02-17T18:35:15.226Z,11.50
2023-02-17T18:37:42.821Z,11.50
2023-02-17T18:40:12.687Z,11.50
2023-02-17T18:42:42.179Z,11.50
2023-02-17T18:45:09.835Z,11.50
2023-02-17T18:47:38.834Z,11.50
2023-02-17T18:50:08.854Z,11.50
2023-02-17T18:52:40.808Z,11.50
2023-02-17T18:55:09.982Z,11.50
2023-02-17T18:57:40.532Z,11.50
2023-02-17T19:00:13.103Z,11.40
2023-02-17T19:02:41.132Z,11.40
2023-02-17T19:05:09.966Z,11.40
2023-02-17T19:07:37.424Z,11.40
2023-02-17T19:10:06.165Z,11.40
2023-02-17T19:12:34.433Z,11.40
2023-02-17T19:15:02.084Z,11.30
2023-02-17T19:17:29.202Z,11.30
2023-02-17T19:19:56.944Z,11.30
2023-02-17T19:22:25.158Z,11.30
2023-02-17T19:24:53.944Z,11.30
2023-02-17T19:27:21.481Z,11.30
2023-02-17T19:29:48.495Z,11.20
2023-02-17T19:32:15.664Z,11.20
2023-02-17T19:34:45.746Z,11.20
2023-02-17T19:37:13.110Z,11.20
2023-02-17T19:39:40.101Z,11.20
2023-02-17T19:42:08.198Z,11.10
2023-02-17T19:44:35.416Z,11.10
2023-02-17T19:47:04.032Z,11.10
2023-02-17T19:49:31.260Z,11.10
2023-02-17T19:51:58.514Z,11.00
2023-02-17T19:54:25.972Z,11.10
2023-02-17T19:56:53.332Z,11.10
2023-02-17T19:59:21.873Z,11.00
2023-02-17T20:01:51.515Z,11.10
2023-02-17T20:04:21.360Z,11.10
2023-02-17T20:06:48.779Z,11.10
2023-02-17T20:09:21.847Z,11.00
2023-02-17T20:11:53.139Z,11.00
2023-02-17T20:14:21.754Z,10.90
2023-02-17T20:16:49.446Z,11.00
2023-02-17T20:19:17.949Z,11.00
2023-02-17T20:21:46.202Z,11.00
2023-02-17T20:24:17.633Z,11.00
2023-02-17T20:26:47.226Z,10.90
2023-02-17T20:29:16.263Z,11.00
2023-02-17T20:31:44.136Z,10.90
2023-02-17T20:34:27.438Z,10.90
2023-02-17T20:36:55.784Z,10.90
2023-02-17T20:39:25.860Z,10.90
2023-02-17T20:41:54.721Z,10.90
2023-02-17T20:44:27.982Z,10.90
2023-02-17T20:46:56.293Z,10.90
2023-02-17T20:49:23.976Z,10.90
2023-02-17T20:51:52.035Z,10.90
2023-02-17T20:54:20.011Z,10.90
2023-02-17T20:56:58.878Z,10.90
2023-02-17T20:59:30.697Z,10.90
2023-02-17T21:01:58.323Z,10.80
2023-02-17T21:04:29.373Z,10.80
2023-02-17T21:07:04.141Z,10.90
2023-02-17T21:09:31.645Z,10.90
2023-02-17T21:12:02.072Z,10.90
2023-02-17T21:14:29.426Z,10.90
2023-02-17T21:16:56.709Z,10.90
2023-02-17T21:19:29.831Z,10.90
2023-02-17T21:21:57.546Z,10.90
2023-02-17T21:24:25.311Z,10.90
2023-02-17T21:26:52.671Z,10.90
2023-02-17T21:29:20.044Z,10.90
2023-02-17T21:31:55.320Z,10.90
2023-02-17T21:34:27.233Z,10.90
2023-02-17T21:36:55.132Z,10.90
2023-02-17T21:39:22.507Z,10.90
2023-02-17T21:41:50.339Z,10.90
2023-02-17T21:44:36.111Z,10.90
2023-02-17T21:47:06.478Z,10.90
2023-02-17T21:49:34.022Z,10.90
2023-02-17T21:52:04.369Z,10.90
2023-02-17T21:54:31.900Z,10.90
2023-02-17T21:57:02.780Z,10.90
2023-02-17T21:59:34.999Z,10.90
2023-02-17T22:02:05.468Z,10.90
2023-02-17T22:04:32.612Z,10.90
2023-02-17T22:06:59.776Z,10.90
2023-02-17T22:09:27.497Z,10.80
2023-02-17T22:11:57.577Z,10.90
2023-02-17T22:14:26.389Z,10.80
2023-02-17T22:16:53.809Z,10.90
2023-02-17T22:19:33.293Z,10.90
2023-02-17T22:22:07.820Z,10.90
2023-02-17T22:24:39.983Z,10.80
2023-02-17T22:27:08.569Z,10.90
2023-02-17T22:29:36.002Z,10.90
2023-02-17T22:32:03.584Z,10.90
2023-02-17T22:34:31.272Z,10.80
2023-02-17T22:36:58.729Z,10.90
2023-02-17T22:39:25.993Z,10.90
2023-02-17T22:41:56.036Z,10.90
2023-02-17T22:44:23.602Z,10.90
2023-02-17T22:46:50.906Z,10.90
2023-02-17T22:49:18.297Z,10.90
2023-02-17T22:51:45.471Z,10.90
2023-02-17T22:54:12.679Z,10.90
2023-02-17T22:56:39.940Z,10.90
2023-02-17T22:59:11.554Z,10.90
2023-02-17T23:01:39.186Z,10.90
2023-02-17T23:04:08.115Z,10.90
2023-02-17T23:06:38.043Z,10.90
2023-02-17T23:09:08.455Z,10.90
2023-02-17T23:11:51.055Z,10.90
2023-02-17T23:14:23.303Z,10.90
2023-02-17T23:16:51.373Z,10.90
2023-02-17T23:19:20.644Z,10.90
2023-02-17T23:21:51.331Z,10.90
2023-02-17T23:24:19.615Z,10.90
2023-02-17T23:26:47.676Z,10.90
2023-02-17T23:29:15.711Z,10.90
2023-02-17T23:31:43.000Z,10.90
2023-02-17T23:34:13.164Z,10.90
2023-02-17T23:36:44.460Z,10.90
2023-02-17T23:39:11.885Z,10.90
2023-02-17T23:41:44.042Z,10.90
2023-02-17T23:44:13.564Z,10.90
2023-02-17T23:46:41.887Z,10.90
2023-02-17T23:49:12.469Z,10.90
2023-02-17T23:51:40.039Z,10.90
2023-02-17T23:54:07.252Z,10.90
2023-02-17T23:56:37.473Z,10.90
2023-02-17T23:59:05.172Z,10.90
